Relevés horaires St-Hubert (Belgique)


Relevés horaires à St-Hubert - Mercredi 24 Juin 2020
Heure UTC1 Température [°C] Vent [km/h] Hum. [%] Pres.4 [hPa] Visi. [Km] Nébu. [octa] Préc.5 [mm] Cond.
2m. Res. Ros. Dir.2 Vit. Moy. Raf.3
23:00 17.1 17.1 5.5 E 7.4 7.4 13.0 46 1020.4(0.2/3h) 45 0/8 -- --
22:00 18.8 18.8 7.1 E 7.4 9.3 13.0 46 1020(0.4/3h) 45 0/8 -- --
21:00 18.2 18.2 9.0 E 5.6 7.4 11.1 55 1020.2(0.5/3h) 45 0/8 -- --
20:00 19.2 19.2 11.2 E 5.6 5.6 9.3 60 1019.6(0.0/3h) 45 0/8 -- --
19:00 22.6 22.6 12.1 E 5.6 5.6 9.3 51 1018.7(-0.4/3h) 35 0/8 -- --
18:00 24.6 24.6 12.0 ESE 5.6 11.1 16.7 45 1018.2(-0.9/3h) 35 0/8 0/12h
--
17:00 25.6 25.6 10.9 ESE 5.6 7.4 11.1 40 1018.2(-0.9/3h) 27 0/8 -- --
16:00 25.5 25.5 10.8 E 5.6 7.4 13.0 40 1018.5(-1.1/3h) 35 0/8 -- --
15:00 25.8 25.8 9.5 E 5.6 11.1 16.7 36 1018.9(-0.8/3h) 40 0/8 -- --
14:00 25.5 25.5 11.3 ESE 5.6 9.3 16.7 41 1019.2(-0.7/3h) 30 0/8 -- --
13:00 24.8 24.8 9.5 E 9.3 11.1 14.8 38 1019.8(-0.5/3h) 35 0/8 -- --
12:00 24.3 24.3 10.4 ESE 7.4 13.0 18.5 42 1020.1(-0.6/3h) 30 0/8 0/6h
--
11:00 23.9 23.9 10.4 E 9.3 11.1 16.7 43 1020.3(-0.4/3h) 30 0/8 -- --
10:00 22.7 22.7 7.8 E 11.1 11.1 16.7 38 1020.8(-0.3/3h) 40 0/8 -- --
09:00 22.0 22.0 8.8 E 9.3 13.0 18.5 43 1021.3(0.1/3h) 35 0/8 -- --
08:00 20.9 20.9 10.4 E 11.1 11.1 16.7 51 1021.4(0.1/3h) 35 0/8 -- --
07:00 19.4 19.4 9.2 ESE 9.3 11.1 16.7 52 1021.9(0.3/3h) 35 0/8 -- --
06:00 17.7 17.7 9.3 E 9.3 11.1 16.7 58 1022.1(0.2/3h) 35 0/8 0/12h
--
05:00 15.6 15.4 9.1 E 9.3 9.3 14.8 65 1022.7(0.2/3h) 35 0/8 -- --
04:00 14.7 14.3 8.9 E 9.3 9.3 14.8 68 1022.7(-0.6/3h) 35 0/8 -- --
03:00 14.8 14.5 8.9 E 9.3 11.1 16.7 68 1022.6(-0.9/3h) 30 0/8 -- --
02:00 16.2 15.9 8.8 E 11.1 11.1 16.7 62 1022.4(-0.9/3h) 40 0/8 -- --
01:00 16.1 16 9.0 E 9.3 9.3 13.0 63 1023(-0.6/3h) 40 0/8 -- --
00:00 15.8 15.6 9.8 E 9.3 9.3 13.0 67 1023.3(-0.5/3h) 30 0/8 0/6h
0/24h
--

1 Coordinated Universal Time. Actuellement il est 09:00 locale et 07:00 UTC.

2 Le vent souffle depuis la direction indiquée vers la direction oposée.

3 Les rafales max. sont disponible 40 min après l'heure du relevé.

4 Pour les stations d'altitude (plus de 600m) le géopotentiel du niveau le plus proche de la pression obligatoire est indiqué.

5 Les stations disposant d'un diffuseur peuvent indiquer "trace". Cela signifie que des précipitations ont touchés le sol mais que la quantité est inférieure à 0.1 mm.

Récapitulatif de la journée
Température [°C] Vent [km/h] Ensoleillement4 [h] Precipitations totale5 [mm] Pression [Hpa]
Min1 Max.2 Moy.3 Max. Min Max.
14.3 26.2 9.7 18.5 0 h 0 min 0 1018.2 1023.3

1 Température minimale relevée entre 18:00 UTC la veille et 18:00 UTC le jour donné.

2 Température maximale relevée entre 06:00 UTC le jour donné et 06:00 UTC le lendemain.

3 Vent moyen de la journée basé sur les relevés horaires.

4 Ensoleillement en heures relevé entre 06:00 UTC la veille et 06:00 UTC le jour donné.

5 Précipitations totales tombées entre 06:00 UTC la jour donné et 06:00 UTC le lendemain.

Graphiques horaires